Terminal Aerodrome Forecast
Issued by NWS Houston/Galveston TX

Home | Current Version | Previous Version | Text Only | Print | Product List | Glossary On
Versions: 1 2 3 4 5 6 7 8 9 10 11 12 13 14 15 16 17 18 19 20 21 22 23 24 25 26 27 28 29 30 31 32 33 34 35
000
FTUS44 KHGX 281140
TAFHOU
TAF
KHOU 281140Z 2812/2912 05004KT P6SM BKN024 BKN110
     FM281600 09010KT P6SM VCTS BKN040CB
     FM282200 12008KT P6SM BKN050
     FM290900 12007KT P6SM VCSH FEW018 SCT250=

USA.gov is the U.S. government's official web portal to all federal, state and local government web resources and services.